Time;durP1;ratioP1;P1;durP2;ratioP2;P2;SDS_P1;SDS_P2;PMS_P1;PMS_P2;Temp;Humidity;BMP_temperature;BMP_pressure;BME280_temperature;BME280_humidity;BME280_pressure;Samples;Min_cycle;Max_cycle;Signal;HPM_P1;HPM_P2
2021/01/19 03:11:31;;;;;;;10.10;9.60;;;1.80;99.90;;;;;;4930087;29;20590;-75
2021/01/19 03:13:57;;;;;;;10.47;9.77;;;1.90;99.90;;;;;;4933575;29;20455;-75
2021/01/19 03:16:24;;;;;;;10.23;9.60;;;1.90;99.90;;;;;;4934293;29;20534;-75
2021/01/19 03:18:51;;;;;;;10.37;9.90;;;1.90;99.90;;;;;;4934380;29;20455;-76
2021/01/19 03:21:17;;;;;;;10.57;10.00;;;2.00;99.90;;;;;;4934687;29;20467;-75
2021/01/19 03:23:43;;;;;;;10.57;10.00;;;2.00;99.90;;;;;;4934460;29;20490;-75
2021/01/19 03:26:10;;;;;;;10.33;9.70;;;2.10;99.90;;;;;;4934197;29;20464;-75
2021/01/19 03:28:37;;;;;;;10.07;9.40;;;2.10;99.90;;;;;;4934303;29;20458;-75
2021/01/19 03:31:04;;;;;;;10.60;10.03;;;2.20;99.90;;;;;;4934529;29;20456;-75
2021/01/19 03:33:30;;;;;;;11.30;10.70;;;2.20;99.90;;;;;;4934560;29;20529;-76
2021/01/19 03:35:57;;;;;;;11.57;10.83;;;2.20;99.90;;;;;;4934195;29;20472;-75
2021/01/19 03:38:23;;;;;;;9.50;9.13;;;2.20;99.90;;;;;;4934131;29;20500;-76
2021/01/19 03:40:49;;;;;;;10.37;9.43;;;2.20;99.90;;;;;;4933888;29;20458;-77
2021/01/19 03:43:16;;;;;;;10.40;9.90;;;2.20;99.90;;;;;;4934308;29;20969;-76
2021/01/19 03:45:43;;;;;;;9.73;9.23;;;2.20;99.90;;;;;;4934087;29;20483;-76
2021/01/19 03:48:09;;;;;;;9.70;9.37;;;2.20;99.90;;;;;;4934106;29;20721;-76
2021/01/19 03:50:35;;;;;;;9.40;9.10;;;2.20;99.90;;;;;;4933648;29;20460;-75
2021/01/19 03:53:02;;;;;;;10.50;9.90;;;2.20;99.90;;;;;;4934454;29;20465;-75
2021/01/19 03:55:29;;;;;;;11.63;10.73;;;2.20;99.90;;;;;;4934034;29;20452;-76
2021/01/19 03:57:55;;;;;;;9.80;9.40;;;2.20;99.90;;;;;;4933842;29;20584;-76
2021/01/19 04:00:22;;;;;;;10.43;9.83;;;2.20;99.90;;;;;;4933800;29;20846;-75
2021/01/19 04:02:49;;;;;;;11.00;10.40;;;2.20;99.90;;;;;;4933680;29;20467;-76
2021/01/19 04:05:15;;;;;;;10.43;9.83;;;2.10;99.90;;;;;;4934027;29;20458;-76
2021/01/19 04:07:43;;;;;;;10.03;9.63;;;2.10;99.90;;;;;;4933666;29;20837;-77
2021/01/19 04:10:11;;;;;;;10.80;10.10;;;2.10;99.90;;;;;;4933552;29;20480;-76
2021/01/19 04:12:37;;;;;;;9.90;9.30;;;2.10;99.90;;;;;;4933464;29;20453;-76
2021/01/19 04:15:05;;;;;;;11.43;10.50;;;2.20;99.90;;;;;;4932865;29;20460;-75
2021/01/19 04:17:31;;;;;;;9.60;9.20;;;2.30;99.90;;;;;;4933492;29;20489;-76
2021/01/19 04:19:58;;;;;;;10.87;9.93;;;2.30;99.90;;;;;;4933357;29;20453;-76
2021/01/19 04:22:25;;;;;;;9.90;9.53;;;2.30;99.90;;;;;;4933448;29;20460;-74
2021/01/19 04:24:51;;;;;;;10.50;10.00;;;2.20;99.90;;;;;;4933291;29;20476;-76
2021/01/19 04:27:18;;;;;;;10.33;9.50;;;2.20;99.90;;;;;;4933759;29;20542;-75
2021/01/19 04:29:44;;;;;;;11.00;10.40;;;2.20;99.90;;;;;;4933638;29;20471;-75
2021/01/19 04:32:10;;;;;;;9.73;9.27;;;2.10;99.90;;;;;;4932972;29;20456;-76
2021/01/19 04:34:36;;;;;;;9.33;8.83;;;2.00;99.90;;;;;;4933095;29;20460;-75
2021/01/19 04:37:03;;;;;;;9.73;9.23;;;2.00;99.90;;;;;;4933188;29;20490;-76
2021/01/19 04:39:29;;;;;;;9.53;9.10;;;2.00;99.90;;;;;;4933177;29;20482;-75
2021/01/19 04:41:56;;;;;;;10.37;9.77;;;1.90;99.90;;;;;;4933053;29;20549;-75
2021/01/19 04:44:24;;;;;;;9.90;9.50;;;1.90;99.90;;;;;;4933088;29;20453;-75
2021/01/19 04:46:51;;;;;;;9.87;9.27;;;1.90;99.90;;;;;;4932951;29;20454;-76
2021/01/19 04:49:17;;;;;;;10.27;9.60;;;1.90;99.90;;;;;;4933243;29;20527;-76
2021/01/19 04:51:46;;;;;;;8.83;8.53;;;1.90;99.90;;;;;;4933052;29;20460;-74
2021/01/19 04:54:16;;;;;;;9.80;9.20;;;1.90;99.90;;;;;;4932743;29;20537;-76
2021/01/19 04:56:50;;;;;;;10.13;9.73;;;2.00;99.90;;;;;;4932556;29;20578;-76
2021/01/19 04:59:22;;;;;;;10.97;10.37;;;2.10;99.90;;;;;;4933116;29;20459;-77
2021/01/19 05:02:21;;;;;;;9.80;9.30;;;2.10;99.90;;;;;;4932838;29;20464;-77
2021/01/19 05:04:50;;;;;;;10.47;9.90;;;2.10;99.90;;;;;;4933082;29;20517;-77
2021/01/19 05:07:33;;;;;;;10.60;9.80;;;2.20;99.90;;;;;;4932920;29;20459;-76
2021/01/19 05:10:10;;;;;;;12.37;11.47;;;2.20;99.90;;;;;;4932402;29;20495;-77
2021/01/19 05:12:41;;;;;;;9.83;9.43;;;2.20;99.90;;;;;;4932364;29;20468;-76
2021/01/19 05:15:10;;;;;;;10.30;9.90;;;2.20;99.90;;;;;;4932552;29;20461;-75
2021/01/19 05:17:37;;;;;;;11.10;10.40;;;2.20;99.90;;;;;;4932754;29;20488;-74
2021/01/19 05:20:05;;;;;;;10.67;9.97;;;2.10;99.90;;;;;;4932852;29;20530;-76
2021/01/19 05:22:32;;;;;;;11.20;10.60;;;2.10;99.90;;;;;;4932608;29;20505;-76
2021/01/19 05:24:58;;;;;;;12.37;11.33;;;2.00;99.90;;;;;;4932576;29;20460;-76
2021/01/19 05:27:25;;;;;;;10.77;10.33;;;2.00;99.90;;;;;;4932495;29;20907;-76
2021/01/19 05:29:59;;;;;;;12.67;11.77;;;2.00;99.90;;;;;;4932441;29;20464;-76
2021/01/19 05:32:35;;;;;;;12.17;11.20;;;2.00;99.90;;;;;;4932183;29;20463;-74
2021/01/19 05:35:14;;;;;;;11.03;10.50;;;2.00;99.90;;;;;;4932616;29;20520;-74
2021/01/19 05:37:42;;;;;;;16.60;13.70;;;1.90;99.90;;;;;;4932539;29;20496;-76
2021/01/19 05:40:10;;;;;;;14.50;11.80;;;1.90;99.90;;;;;;4932267;29;20570;-74
2021/01/19 05:42:37;;;;;;;14.30;13.20;;;1.90;99.90;;;;;;4932328;29;20453;-75
2021/01/19 05:45:08;;;;;;;12.53;11.73;;;1.90;99.90;;;;;;4932721;29;20455;-74
2021/01/19 05:47:34;;;;;;;12.53;11.83;;;1.90;99.90;;;;;;4936816;29;20458;-74
2021/01/19 05:50:01;;;;;;;13.00;12.20;;;1.80;99.90;;;;;;4937398;29;20457;-75
2021/01/19 05:52:31;;;;;;;13.70;12.60;;;1.80;99.90;;;;;;4940849;29;21000;-75
2021/01/19 05:54:59;;;;;;;13.33;12.33;;;1.80;99.90;;;;;;4941410;29;20886;-75
2021/01/19 05:57:26;;;;;;;13.73;12.73;;;1.80;99.90;;;;;;4940147;29;20951;-74
2021/01/19 05:59:55;;;;;;;11.77;11.10;;;1.80;99.90;;;;;;4939853;29;20537;-75
2021/01/19 06:02:22;;;;;;;12.17;11.30;;;1.70;99.90;;;;;;4937140;29;20464;-75
2021/01/19 06:04:50;;;;;;;12.57;11.87;;;1.70;99.90;;;;;;4940419;29;20453;-74
2021/01/19 06:07:18;;;;;;;11.23;10.60;;;1.70;99.90;;;;;;4941533;29;20458;-75
2021/01/19 06:09:45;;;;;;;11.30;10.60;;;1.70;99.90;;;;;;4941500;29;20475;-75
2021/01/19 06:12:14;;;;;;;12.37;11.50;;;1.70;99.90;;;;;;4940908;29;20463;-74
2021/01/19 06:14:46;;;;;;;11.57;10.70;;;1.70;99.90;;;;;;4937912;29;20583;-74
2021/01/19 06:17:14;;;;;;;12.53;11.73;;;1.70;99.90;;;;;;4937944;29;20708;-74
2021/01/19 06:19:42;;;;;;;11.00;10.50;;;1.70;99.90;;;;;;4939489;29;20480;-74
2021/01/19 06:22:13;;;;;;;19.30;10.53;;;1.70;99.90;;;;;;4936556;29;20446;-75
2021/01/19 06:24:41;;;;;;;12.03;11.20;;;1.70;99.90;;;;;;4939903;29;20725;-74
2021/01/19 06:27:09;;;;;;;10.43;9.93;;;1.70;99.90;;;;;;4941154;29;20484;-74
2021/01/19 06:29:36;;;;;;;11.40;10.60;;;1.70;99.90;;;;;;4940521;29;20450;-74
2021/01/19 06:32:05;;;;;;;12.83;12.03;;;1.80;99.90;;;;;;4939573;29;20455;-74
2021/01/19 06:34:34;;;;;;;11.50;10.90;;;1.80;99.90;;;;;;4939249;29;20483;-76
2021/01/19 06:37:01;;;;;;;9.97;9.57;;;1.80;99.90;;;;;;4940916;28;20983;-75
2021/01/19 06:39:33;;;;;;;12.77;11.77;;;1.80;99.90;;;;;;4942454;29;20446;-74
2021/01/19 06:42:14;;;;;;;13.07;11.97;;;1.80;99.90;;;;;;4943287;29;20455;-75
2021/01/19 06:44:44;;;;;;;14.57;13.27;;;1.80;99.90;;;;;;4943360;29;20499;-74
2021/01/19 06:47:10;;;;;;;11.40;10.70;;;1.70;99.90;;;;;;4940135;29;20456;-75
2021/01/19 06:49:38;;;;;;;13.47;12.53;;;1.70;99.90;;;;;;4943640;29;20453;-75
2021/01/19 06:52:06;;;;;;;12.97;11.90;;;1.60;99.90;;;;;;4944215;29;20478;-74
2021/01/19 06:54:55;;;;;;;11.50;10.70;;;1.60;99.90;;;;;;4942947;29;20458;-75
2021/01/19 06:57:33;;;;;;;11.93;11.13;;;1.60;99.90;;;;;;4942727;29;20489;-73
2021/01/19 07:00:07;;;;;;;10.57;9.97;;;1.50;99.90;;;;;;4942761;29;20523;-75
2021/01/19 07:02:37;;;;;;;11.30;10.60;;;1.50;99.90;;;;;;4940918;29;20500;-75
2021/01/19 07:05:10;;;;;;;12.70;11.57;;;1.40;99.90;;;;;;4942217;29;20456;-75
2021/01/19 07:07:41;;;;;;;11.47;10.87;;;1.40;99.90;;;;;;4941211;28;20497;-74
2021/01/19 07:10:11;;;;;;;9.60;9.00;;;1.30;99.90;;;;;;4941712;29;20580;-74
2021/01/19 07:12:58;;;;;;;10.73;10.03;;;1.30;99.90;;;;;;4942375;29;20951;-76
2021/01/19 07:15:52;;;;;;;10.50;10.00;;;1.20;99.90;;;;;;4943182;29;20456;-75
2021/01/19 07:18:31;;;;;;;12.37;11.33;;;1.20;99.90;;;;;;4947965;29;20498;-75
2021/01/19 07:21:08;;;;;;;14.27;12.20;;;1.20;99.90;;;;;;4953853;29;20441;-75
2021/01/19 07:23:57;;;;;;;10.30;9.53;;;1.20;99.90;;;;;;4953882;29;20450;-75
2021/01/19 07:26:32;;;;;;;11.43;10.73;;;1.30;99.90;;;;;;4953838;29;20440;-75
2021/01/19 07:28:58;;;;;;;15.23;13.90;;;1.20;99.90;;;;;;4953827;29;20681;-75
2021/01/19 07:31:25;;;;;;;15.03;13.77;;;1.20;99.90;;;;;;4953348;29;20453;-75
2021/01/19 07:33:53;;;;;;;18.33;16.03;;;1.20;99.90;;;;;;4953475;29;20460;-75
2021/01/19 07:36:21;;;;;;;19.50;16.00;;;1.30;99.90;;;;;;4953570;29;20454;-75
2021/01/19 07:38:48;;;;;;;13.87;12.03;;;1.30;99.90;;;;;;4953851;29;20482;-75
2021/01/19 07:41:26;;;;;;;13.70;12.53;;;1.30;99.90;;;;;;4953494;29;20448;-76
2021/01/19 07:43:52;;;;;;;13.57;10.80;;;1.30;99.90;;;;;;4945263;28;20539;-75
2021/01/19 07:46:22;;;;;;;11.90;10.93;;;1.40;99.90;;;;;;4942868;29;20458;-74
2021/01/19 07:48:59;;;;;;;11.47;10.63;;;1.50;99.90;;;;;;4938986;29;20481;-74
2021/01/19 07:51:26;;;;;;;10.87;10.37;;;1.60;99.90;;;;;;4941005;29;20451;-74
2021/01/19 07:53:54;;;;;;;10.40;9.60;;;1.70;99.90;;;;;;4942329;29;20457;-75
2021/01/19 07:56:24;;;;;;;11.40;10.50;;;1.70;99.90;;;;;;4942906;29;20959;-74
2021/01/19 07:58:51;;;;;;;10.03;8.97;;;1.80;99.90;;;;;;4939371;29;20451;-75
2021/01/19 08:01:24;;;;;;;14.53;10.57;;;1.90;99.90;;;;;;4941698;29;20447;-76
2021/01/19 08:03:50;;;;;;;10.73;9.93;;;1.90;99.90;;;;;;4939075;29;20445;-76
2021/01/19 08:06:17;;;;;;;10.13;9.33;;;2.00;99.90;;;;;;4941967;29;20856;-76
2021/01/19 08:08:44;;;;;;;9.80;9.30;;;2.10;99.90;;;;;;4942882;29;20841;-76
2021/01/19 08:11:20;;;;;;;9.43;8.83;;;2.20;99.90;;;;;;4940965;29;20471;-76
2021/01/19 08:13:57;;;;;;;11.73;10.53;;;2.40;99.90;;;;;;4941197;29;20863;-76
2021/01/19 08:16:28;;;;;;;11.77;10.80;;;2.50;99.90;;;;;;4941114;29;20443;-74
2021/01/19 08:19:06;;;;;;;11.93;11.13;;;2.70;99.90;;;;;;4939847;29;20747;-76
2021/01/19 08:21:37;;;;;;;11.60;10.90;;;2.90;99.90;;;;;;4939250;29;20722;-74
2021/01/19 08:24:08;;;;;;;11.27;10.47;;;3.00;99.90;;;;;;4943326;29;20475;-77
2021/01/19 08:26:35;;;;;;;11.77;10.87;;;3.10;99.90;;;;;;4939447;29;20453;-76
2021/01/19 08:29:03;;;;;;;12.93;12.03;;;3.20;99.90;;;;;;4941121;29;20873;-76
2021/01/19 08:31:30;;;;;;;12.67;11.87;;;3.50;99.90;;;;;;4937384;29;20450;-76
2021/01/19 08:34:03;;;;;;;10.87;10.10;;;3.70;99.90;;;;;;4941533;29;20448;-77
2021/01/19 08:36:30;;;;;;;11.20;10.60;;;3.80;99.90;;;;;;4938133;29;20450;-77
2021/01/19 08:38:58;;;;;;;12.30;11.70;;;3.90;99.90;;;;;;4941680;29;20456;-81
2021/01/19 08:41:25;;;;;;;13.50;12.23;;;3.90;99.90;;;;;;4937600;29;20453;-78
2021/01/19 08:43:56;;;;;;;13.27;12.23;;;3.90;99.90;;;;;;4933033;29;20456;-76
2021/01/19 08:46:23;;;;;;;10.87;10.07;;;4.20;99.90;;;;;;4933063;29;20486;-77
2021/01/19 08:48:51;;;;;;;12.37;11.37;;;4.50;99.90;;;;;;4933136;29;20965;-77
2021/01/19 08:51:21;;;;;;;13.20;12.20;;;4.80;99.90;;;;;;4933445;29;20460;-73
2021/01/19 08:53:48;;;;;;;11.70;10.93;;;4.80;99.90;;;;;;4932744;29;20455;-76
2021/01/19 08:56:18;;;;;;;11.60;11.00;;;4.50;99.90;;;;;;4932744;29;20461;-77
2021/01/19 08:58:45;;;;;;;10.70;10.20;;;4.20;99.90;;;;;;4941094;29;20504;-77
2021/01/19 09:01:11;;;;;;;11.50;10.60;;;4.20;99.90;;;;;;4939306;28;20446;-77
2021/01/19 09:03:38;;;;;;;11.03;10.43;;;4.30;99.90;;;;;;4951454;29;20472;-78
2021/01/19 09:06:04;;;;;;;10.80;10.10;;;4.30;99.90;;;;;;4951977;29;20457;-78
2021/01/19 09:08:31;;;;;;;11.27;10.67;;;4.20;99.90;;;;;;4951901;28;20532;-79
2021/01/19 09:13:59;;;;;;;11.50;10.70;;;4.30;99.90;;;;;;5537954;23;20593;-75
2021/01/19 09:16:25;;;;;;;10.27;9.67;;;4.20;99.90;;;;;;4931403;29;20455;-75
2021/01/19 09:18:53;;;;;;;11.33;10.50;;;3.80;99.90;;;;;;4932786;29;20506;-76
2021/01/19 09:21:20;;;;;;;11.50;10.70;;;3.70;99.90;;;;;;4932808;29;20952;-75
2021/01/19 09:23:46;;;;;;;10.67;10.07;;;3.50;99.90;;;;;;4932680;29;20658;-75
2021/01/19 09:26:12;;;;;;;11.00;10.53;;;3.50;99.90;;;;;;4932760;29;20450;-75
2021/01/19 09:28:39;;;;;;;11.83;11.10;;;3.50;99.90;;;;;;4932827;29;20480;-76
2021/01/19 09:31:12;;;;;;;10.47;9.90;;;3.50;99.90;;;;;;4932672;29;20457;-75
2021/01/19 09:33:39;;;;;;;12.87;11.23;;;3.40;99.90;;;;;;4931393;29;20457;-75
2021/01/19 09:36:07;;;;;;;11.20;10.50;;;3.30;99.90;;;;;;4930513;29;20982;-76
2021/01/19 09:38:34;;;;;;;12.07;11.37;;;3.30;99.90;;;;;;4932386;29;20897;-76
2021/01/19 09:41:00;;;;;;;14.20;13.03;;;3.30;99.90;;;;;;4932448;29;20450;-75
2021/01/19 09:43:27;;;;;;;12.00;11.20;;;3.30;99.90;;;;;;4932508;29;20488;-76
2021/01/19 09:45:57;;;;;;;11.80;11.10;;;3.30;99.90;;;;;;4932576;29;20449;-75
2021/01/19 09:48:26;;;;;;;11.40;10.60;;;3.40;99.90;;;;;;4932731;29;20450;-75
2021/01/19 09:50:52;;;;;;;11.33;10.60;;;3.40;99.90;;;;;;4932331;29;20449;-75
2021/01/19 09:53:24;;;;;;;11.93;11.20;;;3.30;99.90;;;;;;4932192;29;20493;-76
2021/01/19 09:55:50;;;;;;;11.53;10.73;;;3.30;99.90;;;;;;4932434;29;20548;-76
2021/01/19 09:58:21;;;;;;;10.23;9.60;;;3.30;99.90;;;;;;4926867;29;20814;-75
2021/01/19 10:00:47;;;;;;;11.37;10.40;;;3.30;99.90;;;;;;4926029;29;20502;-75
2021/01/19 10:03:15;;;;;;;11.83;11.13;;;3.30;99.90;;;;;;4928351;29;20476;-76
2021/01/19 10:05:42;;;;;;;10.07;9.43;;;3.30;99.90;;;;;;4922179;29;20503;-76
2021/01/19 10:08:09;;;;;;;11.70;10.70;;;3.30;99.90;;;;;;4932796;29;20461;-78
2021/01/19 10:10:37;;;;;;;10.90;10.33;;;3.20;99.90;;;;;;4932430;29;20489;-75
2021/01/19 10:13:04;;;;;;;11.97;11.17;;;3.30;99.90;;;;;;4933837;29;20584;-76
2021/01/19 10:15:31;;;;;;;11.27;10.73;;;3.40;99.90;;;;;;4950328;29;20489;-76
2021/01/19 10:17:58;;;;;;;10.13;9.63;;;3.50;99.90;;;;;;4953305;29;20484;-74
2021/01/19 10:20:31;;;;;;;12.70;11.87;;;3.40;99.90;;;;;;4953138;29;20453;-76
2021/01/19 10:23:05;;;;;;;10.80;10.20;;;3.30;99.90;;;;;;4945613;29;20479;-77
2021/01/19 10:25:32;;;;;;;12.10;11.30;;;3.30;99.90;;;;;;4950917;29;20709;-73
2021/01/19 10:28:00;;;;;;;11.63;10.90;;;3.40;99.90;;;;;;4954869;29;20448;-77
2021/01/19 10:30:31;;;;;;;10.60;10.03;;;3.50;99.90;;;;;;4947039;29;20481;-75
2021/01/19 10:32:57;;;;;;;11.30;10.40;;;3.60;99.90;;;;;;4946433;29;20834;-75
2021/01/19 10:35:26;;;;;;;11.80;11.03;;;3.60;99.90;;;;;;4943418;29;20790;-75
2021/01/19 10:37:54;;;;;;;11.50;10.80;;;3.60;99.90;;;;;;4935217;29;20880;-76
2021/01/19 10:40:22;;;;;;;12.07;11.33;;;3.60;99.90;;;;;;4935426;29;20461;-78
2021/01/19 10:42:48;;;;;;;11.37;10.57;;;3.60;99.90;;;;;;4954576;29;20463;-75
2021/01/19 10:45:27;;;;;;;11.40;10.70;;;3.70;99.90;;;;;;4954176;29;20870;-76
2021/01/19 10:47:55;;;;;;;11.80;11.10;;;3.70;99.90;;;;;;4954093;29;20827;-79
2021/01/19 10:50:26;;;;;;;10.50;10.00;;;3.70;99.90;;;;;;4954482;29;20733;-75
2021/01/19 10:52:54;;;;;;;11.03;10.43;;;3.70;99.90;;;;;;4954576;29;20459;-76
2021/01/19 10:55:21;;;;;;;10.37;9.77;;;3.60;99.90;;;;;;4954368;29;20473;-76
2021/01/19 10:57:48;;;;;;;8.93;8.43;;;3.70;99.90;;;;;;4954758;29;20891;-76
2021/01/19 11:00:16;;;;;;;11.40;10.50;;;3.70;99.90;;;;;;4954275;29;20453;-75
2021/01/19 11:02:42;;;;;;;11.70;11.00;;;3.80;99.90;;;;;;4954076;29;20526;-75
2021/01/19 11:05:10;;;;;;;11.77;10.97;;;3.80;99.90;;;;;;4950572;29;20476;-75
2021/01/19 11:07:36;;;;;;;12.00;11.20;;;3.90;99.90;;;;;;4954120;29;20479;-75
2021/01/19 11:10:02;;;;;;;10.90;10.30;;;3.90;99.90;;;;;;4952988;29;20454;-75
2021/01/19 11:12:29;;;;;;;11.50;10.70;;;3.90;99.90;;;;;;4954460;29;20832;-76
2021/01/19 11:14:55;;;;;;;11.40;10.60;;;4.00;99.90;;;;;;4954249;29;20514;-76
2021/01/19 11:17:21;;;;;;;12.33;11.47;;;4.10;99.90;;;;;;4954250;29;20492;-76
2021/01/19 11:19:48;;;;;;;12.37;11.30;;;4.10;99.90;;;;;;4954133;29;20473;-76
2021/01/19 11:22:14;;;;;;;12.07;11.33;;;4.10;99.90;;;;;;4954128;29;20454;-76
2021/01/19 11:24:40;;;;;;;9.80;9.20;;;4.10;99.90;;;;;;4953573;28;20725;-77
2021/01/19 11:27:06;;;;;;;11.00;10.20;;;4.10;99.90;;;;;;4954113;29;20465;-76
2021/01/19 11:29:33;;;;;;;11.07;10.40;;;4.20;99.90;;;;;;4954099;29;20462;-77
2021/01/19 11:32:00;;;;;;;12.10;11.30;;;4.30;99.90;;;;;;4953848;29;20464;-76
2021/01/19 11:34:26;;;;;;;11.93;11.17;;;4.30;99.90;;;;;;4953781;29;20977;-77
2021/01/19 11:36:52;;;;;;;10.87;10.07;;;4.40;99.90;;;;;;4953720;29;20459;-77
2021/01/19 11:39:18;;;;;;;11.10;10.60;;;4.70;99.90;;;;;;4948247;29;20491;-79
2021/01/19 11:41:45;;;;;;;12.17;10.90;;;4.80;99.90;;;;;;4938652;29;20468;-78
2021/01/19 11:44:11;;;;;;;12.33;11.10;;;4.80;99.90;;;;;;4934517;29;20460;-78
2021/01/19 11:46:38;;;;;;;11.20;10.50;;;4.90;99.90;;;;;;4934464;29;20911;-77
2021/01/19 11:49:06;;;;;;;12.10;11.37;;;5.00;99.90;;;;;;4934431;29;20461;-77
2021/01/19 11:51:34;;;;;;;11.40;10.80;;;5.30;99.90;;;;;;4934745;29;20449;-77
2021/01/19 11:54:02;;;;;;;11.83;11.03;;;5.30;99.90;;;;;;4934652;29;20449;-79
2021/01/19 11:56:33;;;;;;;11.00;10.30;;;5.30;99.90;;;;;;4934338;29;20456;-77
2021/01/19 11:58:59;;;;;;;11.27;10.63;;;5.30;99.90;;;;;;4930519;29;20910;-78
2021/01/19 12:01:26;;;;;;;12.20;11.40;;;5.30;99.90;;;;;;4928472;29;20468;-75
2021/01/19 12:03:53;;;;;;;12.13;11.43;;;5.30;99.90;;;;;;4933042;29;20464;-77
2021/01/19 12:06:19;;;;;;;11.60;11.00;;;5.40;99.90;;;;;;4934111;29;20466;-77
2021/01/19 12:08:47;;;;;;;12.57;11.67;;;5.40;99.90;;;;;;4933826;29;20460;-78
2021/01/19 12:11:14;;;;;;;11.53;10.93;;;5.30;99.90;;;;;;4933733;29;20843;-77
2021/01/19 12:13:41;;;;;;;14.20;13.00;;;5.40;99.90;;;;;;4933538;29;20481;-77
2021/01/19 12:16:08;;;;;;;12.43;11.77;;;5.60;99.90;;;;;;4933816;29;20459;-78
2021/01/19 12:18:35;;;;;;;13.13;12.43;;;5.70;99.90;;;;;;4933866;29;20548;-74
2021/01/19 12:21:04;;;;;;;12.67;11.87;;;5.70;99.90;;;;;;4933729;29;20515;-75
2021/01/19 12:23:30;;;;;;;11.80;11.20;;;5.80;99.90;;;;;;4933305;29;20530;-74
2021/01/19 12:25:56;;;;;;;11.47;10.87;;;5.90;99.90;;;;;;4933704;29;20822;-78
2021/01/19 12:28:23;;;;;;;12.63;11.80;;;5.90;99.90;;;;;;4933500;29;20449;-77
2021/01/19 12:30:50;;;;;;;11.50;10.90;;;5.90;99.90;;;;;;4933634;29;20972;-74
2021/01/19 12:33:16;;;;;;;11.40;10.80;;;6.00;99.90;;;;;;4933618;29;20857;-76
2021/01/19 12:35:42;;;;;;;12.10;11.27;;;6.10;99.90;;;;;;4932430;29;20452;-74
2021/01/19 12:38:09;;;;;;;11.80;11.07;;;6.10;99.90;;;;;;4933298;29;20503;-77
2021/01/19 12:40:35;;;;;;;12.10;11.30;;;6.30;99.90;;;;;;4935849;29;20472;-75
2021/01/19 12:43:02;;;;;;;11.17;10.50;;;6.20;99.90;;;;;;4952399;29;20945;-75
2021/01/19 12:45:28;;;;;;;12.23;11.43;;;6.20;99.90;;;;;;4952399;29;20460;-76
2021/01/19 12:47:55;;;;;;;11.50;10.70;;;6.30;99.90;;;;;;4952272;29;20459;-76
2021/01/19 12:50:21;;;;;;;11.70;10.83;;;6.40;99.90;;;;;;4952470;29;20456;-75
2021/01/19 12:52:47;;;;;;;10.93;10.23;;;6.50;99.90;;;;;;4959896;29;20449;-75
2021/01/19 12:55:14;;;;;;;10.20;9.50;;;6.50;99.90;;;;;;4952068;29;20520;-75
2021/01/19 12:57:40;;;;;;;11.00;10.37;;;6.20;99.90;;;;;;4951770;29;20507;-74
2021/01/19 13:00:08;;;;;;;9.83;9.33;;;6.10;99.90;;;;;;4951701;29;20464;-74
2021/01/19 13:02:34;;;;;;;10.13;9.63;;;6.10;99.90;;;;;;4951990;29;20463;-75
2021/01/19 13:05:02;;;;;;;9.53;9.10;;;6.10;99.90;;;;;;4950135;29;20471;-78
2021/01/19 13:07:28;;;;;;;11.70;10.23;;;6.00;99.90;;;;;;4951993;29;20558;-78
2021/01/19 13:09:55;;;;;;;10.97;10.50;;;6.00;99.90;;;;;;4952127;29;20813;-78
2021/01/19 13:12:24;;;;;;;12.07;11.03;;;6.00;99.90;;;;;;4951935;29;20867;-79
2021/01/19 13:14:50;;;;;;;11.17;10.47;;;6.00;99.90;;;;;;4951581;29;20502;-78
2021/01/19 13:17:16;;;;;;;11.00;10.50;;;5.90;99.90;;;;;;4951717;29;20552;-79
2021/01/19 13:19:43;;;;;;;10.83;10.23;;;6.00;99.90;;;;;;4951909;29;20454;-77
2021/01/19 13:22:09;;;;;;;10.60;9.90;;;6.10;99.90;;;;;;4949048;29;20479;-79
2021/01/19 13:24:36;;;;;;;12.50;11.70;;;6.30;99.90;;;;;;4952462;29;20806;-78
2021/01/19 13:27:02;;;;;;;10.57;9.97;;;6.40;99.90;;;;;;4952319;29;20466;-77
2021/01/19 13:29:30;;;;;;;11.30;10.47;;;6.40;99.90;;;;;;4952220;29;20456;-77
2021/01/19 13:31:59;;;;;;;10.70;10.10;;;6.50;99.90;;;;;;4952403;29;20459;-77
2021/01/19 13:34:25;;;;;;;11.57;10.70;;;6.70;99.90;;;;;;4952402;29;20503;-78
2021/01/19 13:36:51;;;;;;;10.27;9.73;;;6.90;99.90;;;;;;4952142;29;20459;-77
2021/01/19 13:39:18;;;;;;;10.00;9.60;;;6.90;99.90;;;;;;4950521;29;21040;-77
2021/01/19 13:41:44;;;;;;;10.17;9.67;;;6.90;99.90;;;;;;4951702;29;20813;-77
2021/01/19 13:44:10;;;;;;;10.73;10.23;;;7.00;99.90;;;;;;4951865;29;20466;-78
2021/01/19 13:46:37;;;;;;;10.60;10.20;;;7.00;99.90;;;;;;4952889;28;20456;-77
2021/01/19 13:49:03;;;;;;;10.70;10.20;;;7.10;99.90;;;;;;4955984;29;21021;-77
2021/01/19 13:51:29;;;;;;;11.10;10.47;;;7.00;99.90;;;;;;4956005;29;20511;-77
2021/01/19 13:53:56;;;;;;;10.47;9.70;;;6.90;99.90;;;;;;4955839;29;21015;-77
2021/01/19 13:56:24;;;;;;;10.43;10.00;;;6.70;99.90;;;;;;4955855;29;20452;-76
2021/01/19 13:58:50;;;;;;;11.77;11.20;;;6.70;99.90;;;;;;4955574;29;20896;-76
2021/01/19 14:01:16;;;;;;;10.43;10.03;;;6.70;99.90;;;;;;4955531;29;20456;-76
2021/01/19 14:03:43;;;;;;;8.93;8.53;;;6.70;99.90;;;;;;4955551;29;20464;-76
2021/01/19 14:06:11;;;;;;;9.33;8.80;;;6.70;99.90;;;;;;4955605;29;20464;-77
2021/01/19 14:08:39;;;;;;;10.30;9.80;;;6.70;99.90;;;;;;4955502;29;20484;-77
2021/01/19 14:11:05;;;;;;;9.53;9.03;;;6.70;99.90;;;;;;4955472;29;20456;-77
2021/01/19 14:13:32;;;;;;;9.70;9.30;;;6.70;99.90;;;;;;4955137;29;20480;-77
2021/01/19 14:15:58;;;;;;;8.97;8.57;;;6.70;99.90;;;;;;4954956;29;20821;-77
2021/01/19 14:18:24;;;;;;;8.93;8.70;;;6.80;99.90;;;;;;4954804;29;20743;-76
2021/01/19 14:20:51;;;;;;;9.30;9.00;;;7.00;99.90;;;;;;4955080;29;20459;-76
2021/01/19 14:23:17;;;;;;;9.67;8.77;;;6.90;99.90;;;;;;4955253;29;20460;-78
2021/01/19 14:25:44;;;;;;;8.93;8.63;;;6.90;99.90;;;;;;4955214;29;20983;-78
2021/01/19 14:28:10;;;;;;;8.90;8.60;;;6.90;99.90;;;;;;4954870;29;20487;-77
2021/01/19 14:30:36;;;;;;;9.23;8.50;;;6.80;99.90;;;;;;4955018;29;20466;-77
2021/01/19 14:33:03;;;;;;;9.43;9.13;;;6.90;99.90;;;;;;4954974;29;20459;-77
2021/01/19 14:35:29;;;;;;;9.27;8.87;;;6.90;99.90;;;;;;4955084;29;21017;-77
2021/01/19 14:37:57;;;;;;;9.30;9.00;;;7.00;99.90;;;;;;4954893;29;20488;-78
2021/01/19 14:40:23;;;;;;;9.20;8.90;;;6.90;99.90;;;;;;4954090;29;20452;-77
2021/01/19 14:42:52;;;;;;;9.27;8.93;;;6.90;99.90;;;;;;4935621;29;20532;-77
2021/01/19 14:45:18;;;;;;;10.23;9.60;;;7.00;99.90;;;;;;4935668;29;20673;-77
2021/01/19 14:47:44;;;;;;;9.93;9.53;;;7.00;99.90;;;;;;4935944;29;20453;-77
2021/01/19 14:50:12;;;;;;;9.53;9.20;;;7.00;99.90;;;;;;4935880;29;20480;-77
2021/01/19 14:52:44;;;;;;;10.27;9.43;;;6.90;99.90;;;;;;4935759;29;20453;-76
2021/01/19 14:55:12;;;;;;;9.17;8.87;;;7.00;99.90;;;;;;4935501;29;20496;-76
2021/01/19 14:57:42;;;;;;;10.20;9.70;;;6.90;99.90;;;;;;4934899;29;20520;-76
2021/01/19 15:00:10;;;;;;;9.60;9.20;;;7.00;99.90;;;;;;4935140;29;20465;-76
2021/01/19 15:02:36;;;;;;;9.80;9.30;;;7.00;99.90;;;;;;4935329;29;20508;-76
2021/01/19 15:05:04;;;;;;;9.70;9.40;;;7.00;99.90;;;;;;4935385;29;20461;-76
2021/01/19 15:07:30;;;;;;;9.00;8.70;;;6.90;99.90;;;;;;4935397;29;20450;-77
2021/01/19 15:09:56;;;;;;;9.60;9.30;;;7.00;99.90;;;;;;4935310;29;20450;-77
2021/01/19 15:12:28;;;;;;;9.60;9.10;;;7.20;99.90;;;;;;4935120;29;20537;-76
2021/01/19 15:14:54;;;;;;;9.77;9.30;;;7.10;99.90;;;;;;4933862;29;20525;-75
2021/01/19 15:17:21;;;;;;;9.40;9.10;;;7.20;99.90;;;;;;4934460;29;20457;-76
2021/01/19 15:19:47;;;;;;;9.20;8.80;;;7.20;99.90;;;;;;4934830;29;20517;-76
2021/01/19 15:22:14;;;;;;;9.00;8.70;;;7.00;99.90;;;;;;4934511;29;20939;-78
2021/01/19 15:24:40;;;;;;;8.90;8.60;;;7.00;99.90;;;;;;4934594;29;20458;-77
2021/01/19 15:27:07;;;;;;;8.60;8.40;;;7.00;99.90;;;;;;4934801;29;20878;-78
2021/01/19 15:29:34;;;;;;;9.43;9.10;;;7.00;99.90;;;;;;4934186;29;20559;-77
2021/01/19 15:32:00;;;;;;;9.60;9.10;;;7.00;99.90;;;;;;4934344;29;20977;-78
2021/01/19 15:34:27;;;;;;;9.67;9.37;;;7.00;99.90;;;;;;4934555;29;20465;-78
2021/01/19 15:36:55;;;;;;;9.90;9.50;;;7.00;99.90;;;;;;4934826;29;20974;-78
2021/01/19 15:39:23;;;;;;;9.50;9.00;;;7.10;99.90;;;;;;4934376;29;20499;-79
2021/01/19 15:42:01;;;;;;;9.00;8.70;;;7.10;99.90;;;;;;4946495;29;20456;-78
2021/01/19 15:44:28;;;;;;;9.63;9.33;;;7.00;99.90;;;;;;4952886;29;20824;-78
2021/01/19 15:46:55;;;;;;;9.47;9.10;;;6.90;99.90;;;;;;4953230;29;20801;-77
2021/01/19 15:49:24;;;;;;;9.03;8.63;;;6.80;99.90;;;;;;4952956;29;20448;-77
2021/01/19 15:51:50;;;;;;;9.23;8.93;;;6.80;99.90;;;;;;4952778;29;20463;-77
2021/01/19 15:54:23;;;;;;;8.93;8.60;;;6.90;99.90;;;;;;4953063;29;20456;-77
2021/01/19 15:56:51;;;;;;;9.83;9.40;;;6.80;99.90;;;;;;4952981;29;20456;-77
2021/01/19 15:59:20;;;;;;;9.93;9.43;;;6.70;99.90;;;;;;4952537;29;21034;-77
2021/01/19 16:01:57;;;;;;;8.77;8.47;;;6.80;99.90;;;;;;4952791;29;20471;-77